Funkstown, Maryland
Current Conditions -  °F | °C
As of 10:53 PM on Tuesday 21 Oct 2014 (Local Time) from KHGR Reporting Station
Scattered Clouds Scattered Clouds  
Wind Chill: 50°   Ceiling: Unl
Heat Index: 50°   Visibility: 7mi
Dew Point: 48°   Wind: 3mph
Humidity: 93%   Direction: 280°W
Pressure: 29.93"   Gusts: NA
Location:  39.61°N, 77.7°W
Report Text: KHGR 220253Z AUTO 28003KT 7SM SCT120 10/09 A2993 RMK AO2 SLP145 T01000089 51009 TSNO
Loading
Personal Weather Stations






























Interactive Weather Map
Tropical Storm Tracking
New forecast layout! Learn more

10-Day Weather Forecast

Advertisements
Track Severe Weather on mobile